sensor_id;sensor_type;location;lat;lon;timestamp;P1;durP1;ratioP1;P2;durP2;ratioP2
74383;SDS011;62824;52.994;-3.936;2024-01-16T00:01:47;6.18;;;2.75;;
74383;SDS011;62824;52.994;-3.936;2024-01-16T00:04:13;8.70;;;2.95;;
74383;SDS011;62824;52.994;-3.936;2024-01-16T00:06:42;6.55;;;2.92;;
74383;SDS011;62824;52.994;-3.936;2024-01-16T00:09:08;7.80;;;3.25;;
74383;SDS011;62824;52.994;-3.936;2024-01-16T00:11:43;8.90;;;3.90;;
74383;SDS011;62824;52.994;-3.936;2024-01-16T00:14:09;9.13;;;3.63;;
74383;SDS011;62824;52.994;-3.936;2024-01-16T00:16:44;7.93;;;3.28;;
74383;SDS011;62824;52.994;-3.936;2024-01-16T00:19:11;6.70;;;3.80;;
74383;SDS011;62824;52.994;-3.936;2024-01-16T00:21:40;7.53;;;3.65;;
74383;SDS011;62824;52.994;-3.936;2024-01-16T00:24:07;8.27;;;3.60;;
74383;SDS011;62824;52.994;-3.936;2024-01-16T00:26:33;5.10;;;3.10;;
74383;SDS011;62824;52.994;-3.936;2024-01-16T00:28:59;7.40;;;2.42;;
74383;SDS011;62824;52.994;-3.936;2024-01-16T00:31:26;6.20;;;2.20;;
74383;SDS011;62824;52.994;-3.936;2024-01-16T00:33:52;5.25;;;2.30;;
74383;SDS011;62824;52.994;-3.936;2024-01-16T00:36:17;6.13;;;2.35;;
74383;SDS011;62824;52.994;-3.936;2024-01-16T00:38:44;5.90;;;2.70;;
74383;SDS011;62824;52.994;-3.936;2024-01-16T00:41:11;5.32;;;2.70;;
74383;SDS011;62824;52.994;-3.936;2024-01-16T00:43:39;5.93;;;2.38;;
74383;SDS011;62824;52.994;-3.936;2024-01-16T00:46:05;7.65;;;1.90;;
74383;SDS011;62824;52.994;-3.936;2024-01-16T00:48:31;9.57;;;2.35;;
74383;SDS011;62824;52.994;-3.936;2024-01-16T00:50:57;6.60;;;3.65;;
74383;SDS011;62824;52.994;-3.936;2024-01-16T00:53:23;4.40;;;1.70;;
74383;SDS011;62824;52.994;-3.936;2024-01-16T00:55:49;4.38;;;1.48;;
74383;SDS011;62824;52.994;-3.936;2024-01-16T00:58:15;3.42;;;1.63;;
74383;SDS011;62824;52.994;-3.936;2024-01-16T01:00:41;3.28;;;1.48;;
74383;SDS011;62824;52.994;-3.936;2024-01-16T01:03:07;5.35;;;2.13;;
74383;SDS011;62824;52.994;-3.936;2024-01-16T01:05:33;3.92;;;2.05;;
74383;SDS011;62824;52.994;-3.936;2024-01-16T01:07:58;3.13;;;2.00;;
74383;SDS011;62824;52.994;-3.936;2024-01-16T01:10:25;4.05;;;1.38;;
74383;SDS011;62824;52.994;-3.936;2024-01-16T01:12:51;3.08;;;1.83;;
74383;SDS011;62824;52.994;-3.936;2024-01-16T01:15:19;6.38;;;2.00;;
74383;SDS011;62824;52.994;-3.936;2024-01-16T01:17:47;2.53;;;1.45;;
74383;SDS011;62824;52.994;-3.936;2024-01-16T01:20:14;2.97;;;1.60;;
74383;SDS011;62824;52.994;-3.936;2024-01-16T01:22:40;4.47;;;1.50;;
74383;SDS011;62824;52.994;-3.936;2024-01-16T01:25:06;3.53;;;1.60;;
74383;SDS011;62824;52.994;-3.936;2024-01-16T01:27:33;3.00;;;1.50;;
74383;SDS011;62824;52.994;-3.936;2024-01-16T01:29:58;2.50;;;1.48;;
74383;SDS011;62824;52.994;-3.936;2024-01-16T01:32:24;2.53;;;1.50;;
74383;SDS011;62824;52.994;-3.936;2024-01-16T01:34:51;3.42;;;1.50;;
74383;SDS011;62824;52.994;-3.936;2024-01-16T01:37:18;2.67;;;1.40;;
74383;SDS011;62824;52.994;-3.936;2024-01-16T01:39:43;5.22;;;1.35;;
74383;SDS011;62824;52.994;-3.936;2024-01-16T01:42:09;3.47;;;1.65;;
74383;SDS011;62824;52.994;-3.936;2024-01-16T01:44:35;2.40;;;1.40;;
74383;SDS011;62824;52.994;-3.936;2024-01-16T01:47:00;3.70;;;1.38;;
74383;SDS011;62824;52.994;-3.936;2024-01-16T01:49:27;6.97;;;1.40;;
74383;SDS011;62824;52.994;-3.936;2024-01-16T01:51:53;2.30;;;1.25;;
74383;SDS011;62824;52.994;-3.936;2024-01-16T01:54:20;3.40;;;1.73;;
74383;SDS011;62824;52.994;-3.936;2024-01-16T01:56:47;2.85;;;1.13;;
74383;SDS011;62824;52.994;-3.936;2024-01-16T01:59:15;2.25;;;1.20;;
74383;SDS011;62824;52.994;-3.936;2024-01-16T02:01:47;2.17;;;1.25;;
74383;SDS011;62824;52.994;-3.936;2024-01-16T02:04:14;2.60;;;1.38;;
74383;SDS011;62824;52.994;-3.936;2024-01-16T02:06:44;3.80;;;1.42;;
74383;SDS011;62824;52.994;-3.936;2024-01-16T02:09:11;2.53;;;1.30;;
74383;SDS011;62824;52.994;-3.936;2024-01-16T02:11:41;2.03;;;1.10;;
74383;SDS011;62824;52.994;-3.936;2024-01-16T02:14:08;2.72;;;1.48;;
74383;SDS011;62824;52.994;-3.936;2024-01-16T02:16:40;2.53;;;1.35;;
74383;SDS011;62824;52.994;-3.936;2024-01-16T02:24:03;3.08;;;1.73;;
74383;SDS011;62824;52.994;-3.936;2024-01-16T02:26:35;2.28;;;1.55;;
74383;SDS011;62824;52.994;-3.936;2024-01-16T02:29:01;3.58;;;1.77;;
74383;SDS011;62824;52.994;-3.936;2024-01-16T02:31:28;2.75;;;1.48;;
74383;SDS011;62824;52.994;-3.936;2024-01-16T02:33:54;3.30;;;1.50;;
74383;SDS011;62824;52.994;-3.936;2024-01-16T02:36:20;2.75;;;1.52;;
74383;SDS011;62824;52.994;-3.936;2024-01-16T02:38:46;3.75;;;1.10;;
74383;SDS011;62824;52.994;-3.936;2024-01-16T02:41:13;1.80;;;1.20;;
74383;SDS011;62824;52.994;-3.936;2024-01-16T02:43:41;2.25;;;1.45;;
74383;SDS011;62824;52.994;-3.936;2024-01-16T02:46:07;1.77;;;1.10;;
74383;SDS011;62824;52.994;-3.936;2024-01-16T02:48:34;2.47;;;1.00;;
74383;SDS011;62824;52.994;-3.936;2024-01-16T02:51:00;2.13;;;1.20;;
74383;SDS011;62824;52.994;-3.936;2024-01-16T02:53:26;2.08;;;1.25;;
74383;SDS011;62824;52.994;-3.936;2024-01-16T02:55:53;2.00;;;1.30;;
74383;SDS011;62824;52.994;-3.936;2024-01-16T02:58:20;2.17;;;1.33;;
74383;SDS011;62824;52.994;-3.936;2024-01-16T03:00:46;2.20;;;1.42;;
74383;SDS011;62824;52.994;-3.936;2024-01-16T03:03:12;1.63;;;1.25;;
74383;SDS011;62824;52.994;-3.936;2024-01-16T03:05:39;3.72;;;1.50;;
74383;SDS011;62824;52.994;-3.936;2024-01-16T03:08:05;2.58;;;1.60;;
74383;SDS011;62824;52.994;-3.936;2024-01-16T03:10:32;3.80;;;1.92;;
74383;SDS011;62824;52.994;-3.936;2024-01-16T03:12:57;4.10;;;1.55;;
74383;SDS011;62824;52.994;-3.936;2024-01-16T03:15:23;3.70;;;1.63;;
74383;SDS011;62824;52.994;-3.936;2024-01-16T03:17:49;3.47;;;1.65;;
74383;SDS011;62824;52.994;-3.936;2024-01-16T03:20:16;3.38;;;1.35;;
74383;SDS011;62824;52.994;-3.936;2024-01-16T03:22:43;3.10;;;1.38;;
74383;SDS011;62824;52.994;-3.936;2024-01-16T03:25:10;1.70;;;1.13;;
74383;SDS011;62824;52.994;-3.936;2024-01-16T03:27:38;2.22;;;1.13;;
74383;SDS011;62824;52.994;-3.936;2024-01-16T03:30:04;2.90;;;1.25;;
74383;SDS011;62824;52.994;-3.936;2024-01-16T03:32:31;3.42;;;1.40;;
74383;SDS011;62824;52.994;-3.936;2024-01-16T03:34:57;2.30;;;1.70;;
74383;SDS011;62824;52.994;-3.936;2024-01-16T03:37:23;3.97;;;1.95;;
74383;SDS011;62824;52.994;-3.936;2024-01-16T03:39:48;3.13;;;1.55;;
74383;SDS011;62824;52.994;-3.936;2024-01-16T03:42:15;3.75;;;1.73;;
74383;SDS011;62824;52.994;-3.936;2024-01-16T03:44:41;3.95;;;1.95;;
74383;SDS011;62824;52.994;-3.936;2024-01-16T03:47:07;4.38;;;1.90;;
74383;SDS011;62824;52.994;-3.936;2024-01-16T03:49:33;3.40;;;1.70;;
74383;SDS011;62824;52.994;-3.936;2024-01-16T03:51:59;2.40;;;1.40;;
74383;SDS011;62824;52.994;-3.936;2024-01-16T03:54:25;1.77;;;1.38;;
74383;SDS011;62824;52.994;-3.936;2024-01-16T03:56:51;3.13;;;1.35;;
74383;SDS011;62824;52.994;-3.936;2024-01-16T03:59:18;2.45;;;1.20;;
74383;SDS011;62824;52.994;-3.936;2024-01-16T04:01:43;4.07;;;1.30;;
74383;SDS011;62824;52.994;-3.936;2024-01-16T04:04:10;9.10;;;1.95;;
74383;SDS011;62824;52.994;-3.936;2024-01-16T04:06:36;1.40;;;1.02;;
74383;SDS011;62824;52.994;-3.936;2024-01-16T04:09:02;2.75;;;1.10;;
74383;SDS011;62824;52.994;-3.936;2024-01-16T04:11:29;3.22;;;1.50;;
74383;SDS011;62824;52.994;-3.936;2024-01-16T04:13:55;3.80;;;1.38;;
74383;SDS011;62824;52.994;-3.936;2024-01-16T04:16:21;3.95;;;1.27;;
74383;SDS011;62824;52.994;-3.936;2024-01-16T04:18:47;3.55;;;1.63;;
74383;SDS011;62824;52.994;-3.936;2024-01-16T04:21:13;4.25;;;1.60;;
74383;SDS011;62824;52.994;-3.936;2024-01-16T04:23:40;2.50;;;1.52;;
74383;SDS011;62824;52.994;-3.936;2024-01-16T04:26:07;4.05;;;1.70;;
74383;SDS011;62824;52.994;-3.936;2024-01-16T04:28:33;2.83;;;1.25;;
74383;SDS011;62824;52.994;-3.936;2024-01-16T04:31:00;4.45;;;1.70;;
74383;SDS011;62824;52.994;-3.936;2024-01-16T04:33:26;6.10;;;2.30;;
74383;SDS011;62824;52.994;-3.936;2024-01-16T04:35:52;3.42;;;1.50;;
74383;SDS011;62824;52.994;-3.936;2024-01-16T04:38:18;3.72;;;1.60;;
74383;SDS011;62824;52.994;-3.936;2024-01-16T04:40:44;3.40;;;1.90;;
74383;SDS011;62824;52.994;-3.936;2024-01-16T04:43:10;4.03;;;1.50;;
74383;SDS011;62824;52.994;-3.936;2024-01-16T04:45:36;2.08;;;1.27;;
74383;SDS011;62824;52.994;-3.936;2024-01-16T04:48:01;2.40;;;1.05;;
74383;SDS011;62824;52.994;-3.936;2024-01-16T04:50:31;1.65;;;1.20;;
74383;SDS011;62824;52.994;-3.936;2024-01-16T04:52:57;5.43;;;1.70;;
74383;SDS011;62824;52.994;-3.936;2024-01-16T04:55:27;6.18;;;3.10;;
74383;SDS011;62824;52.994;-3.936;2024-01-16T04:57:54;6.05;;;1.98;;
74383;SDS011;62824;52.994;-3.936;2024-01-16T05:00:20;2.92;;;1.40;;
74383;SDS011;62824;52.994;-3.936;2024-01-16T05:02:46;3.60;;;1.50;;
74383;SDS011;62824;52.994;-3.936;2024-01-16T05:05:12;4.43;;;1.58;;
74383;SDS011;62824;52.994;-3.936;2024-01-16T05:07:38;5.13;;;1.70;;
74383;SDS011;62824;52.994;-3.936;2024-01-16T05:10:05;3.80;;;1.63;;
74383;SDS011;62824;52.994;-3.936;2024-01-16T05:12:32;3.33;;;1.40;;
74383;SDS011;62824;52.994;-3.936;2024-01-16T05:14:58;1.88;;;1.23;;
74383;SDS011;62824;52.994;-3.936;2024-01-16T05:17:23;2.65;;;1.20;;
74383;SDS011;62824;52.994;-3.936;2024-01-16T05:19:49;4.82;;;2.08;;
74383;SDS011;62824;52.994;-3.936;2024-01-16T05:22:15;6.63;;;1.48;;
74383;SDS011;62824;52.994;-3.936;2024-01-16T05:24:41;6.00;;;0.98;;
74383;SDS011;62824;52.994;-3.936;2024-01-16T05:27:06;3.70;;;1.10;;
74383;SDS011;62824;52.994;-3.936;2024-01-16T05:29:34;2.95;;;1.02;;
74383;SDS011;62824;52.994;-3.936;2024-01-16T05:32:03;3.65;;;1.40;;
74383;SDS011;62824;52.994;-3.936;2024-01-16T05:34:29;2.58;;;1.17;;
74383;SDS011;62824;52.994;-3.936;2024-01-16T05:36:55;1.98;;;1.08;;
74383;SDS011;62824;52.994;-3.936;2024-01-16T05:39:21;2.15;;;1.13;;
74383;SDS011;62824;52.994;-3.936;2024-01-16T05:41:47;2.08;;;1.10;;
74383;SDS011;62824;52.994;-3.936;2024-01-16T05:44:12;2.38;;;1.00;;
74383;SDS011;62824;52.994;-3.936;2024-01-16T05:46:38;4.28;;;1.60;;
74383;SDS011;62824;52.994;-3.936;2024-01-16T05:49:04;3.47;;;1.20;;
74383;SDS011;62824;52.994;-3.936;2024-01-16T05:51:30;2.05;;;1.05;;
74383;SDS011;62824;52.994;-3.936;2024-01-16T05:53:56;5.18;;;0.98;;
74383;SDS011;62824;52.994;-3.936;2024-01-16T05:56:22;5.18;;;1.25;;
74383;SDS011;62824;52.994;-3.936;2024-01-16T05:58:48;2.40;;;1.23;;
74383;SDS011;62824;52.994;-3.936;2024-01-16T06:01:14;2.88;;;1.80;;
74383;SDS011;62824;52.994;-3.936;2024-01-16T06:03:40;1.25;;;0.88;;
74383;SDS011;62824;52.994;-3.936;2024-01-16T06:06:07;2.70;;;0.98;;
74383;SDS011;62824;52.994;-3.936;2024-01-16T06:08:33;1.88;;;1.17;;
74383;SDS011;62824;52.994;-3.936;2024-01-16T06:10:59;3.60;;;1.02;;
74383;SDS011;62824;52.994;-3.936;2024-01-16T06:13:25;2.33;;;0.90;;
74383;SDS011;62824;52.994;-3.936;2024-01-16T06:15:51;4.07;;;1.27;;
74383;SDS011;62824;52.994;-3.936;2024-01-16T06:18:17;3.10;;;0.80;;
74383;SDS011;62824;52.994;-3.936;2024-01-16T06:20:42;3.33;;;2.03;;
74383;SDS011;62824;52.994;-3.936;2024-01-16T06:23:08;4.43;;;1.45;;
74383;SDS011;62824;52.994;-3.936;2024-01-16T06:37:22;3.75;;;1.10;;
74383;SDS011;62824;52.994;-3.936;2024-01-16T06:39:58;3.03;;;1.80;;
74383;SDS011;62824;52.994;-3.936;2024-01-16T06:43:19;2.83;;;1.38;;
74383;SDS011;62824;52.994;-3.936;2024-01-16T06:50:08;1.65;;;1.15;;
74383;SDS011;62824;52.994;-3.936;2024-01-16T06:53:25;4.07;;;1.00;;
74383;SDS011;62824;52.994;-3.936;2024-01-16T06:55:57;1.88;;;1.15;;
74383;SDS011;62824;52.994;-3.936;2024-01-16T06:58:33;1.20;;;0.98;;
74383;SDS011;62824;52.994;-3.936;2024-01-16T07:01:02;2.25;;;1.38;;
74383;SDS011;62824;52.994;-3.936;2024-01-16T07:03:41;4.50;;;1.10;;
74383;SDS011;62824;52.994;-3.936;2024-01-16T07:06:17;1.90;;;1.10;;
74383;SDS011;62824;52.994;-3.936;2024-01-16T07:08:46;7.82;;;1.48;;
74383;SDS011;62824;52.994;-3.936;2024-01-16T07:11:12;3.45;;;1.38;;
74383;SDS011;62824;52.994;-3.936;2024-01-16T07:13:39;2.55;;;0.90;;
74383;SDS011;62824;52.994;-3.936;2024-01-16T07:16:08;3.45;;;1.10;;
74383;SDS011;62824;52.994;-3.936;2024-01-16T07:18:41;1.25;;;0.93;;
74383;SDS011;62824;52.994;-3.936;2024-01-16T07:24:17;0.93;;;0.63;;
74383;SDS011;62824;52.994;-3.936;2024-01-16T07:26:58;2.30;;;1.00;;
74383;SDS011;62824;52.994;-3.936;2024-01-16T07:29:40;1.52;;;0.80;;
74383;SDS011;62824;52.994;-3.936;2024-01-16T07:32:10;3.92;;;1.20;;
74383;SDS011;62824;52.994;-3.936;2024-01-16T07:35:07;2.15;;;0.90;;
74383;SDS011;62824;52.994;-3.936;2024-01-16T07:37:51;1.50;;;0.73;;
74383;SDS011;62824;52.994;-3.936;2024-01-16T07:40:31;5.75;;;1.20;;
74383;SDS011;62824;52.994;-3.936;2024-01-16T07:42:59;1.33;;;0.68;;
74383;SDS011;62824;52.994;-3.936;2024-01-16T07:45:28;5.68;;;1.00;;
74383;SDS011;62824;52.994;-3.936;2024-01-16T07:48:03;3.30;;;0.80;;
74383;SDS011;62824;52.994;-3.936;2024-01-16T07:50:38;3.15;;;0.80;;
74383;SDS011;62824;52.994;-3.936;2024-01-16T07:53:15;2.00;;;0.98;;
74383;SDS011;62824;52.994;-3.936;2024-01-16T07:58:28;1.20;;;0.70;;
74383;SDS011;62824;52.994;-3.936;2024-01-16T08:03:53;4.22;;;0.90;;
74383;SDS011;62824;52.994;-3.936;2024-01-16T08:06:23;3.65;;;0.88;;
74383;SDS011;62824;52.994;-3.936;2024-01-16T08:08:56;4.20;;;1.52;;
74383;SDS011;62824;52.994;-3.936;2024-01-16T08:11:25;6.68;;;1.35;;
74383;SDS011;62824;52.994;-3.936;2024-01-16T08:14:07;2.25;;;0.80;;
74383;SDS011;62824;52.994;-3.936;2024-01-16T08:17:09;1.33;;;1.00;;
74383;SDS011;62824;52.994;-3.936;2024-01-16T08:19:35;1.95;;;0.90;;
74383;SDS011;62824;52.994;-3.936;2024-01-16T08:22:04;2.78;;;0.93;;
74383;SDS011;62824;52.994;-3.936;2024-01-16T08:24:31;2.20;;;0.65;;
74383;SDS011;62824;52.994;-3.936;2024-01-16T08:27:07;2.40;;;0.85;;
74383;SDS011;62824;52.994;-3.936;2024-01-16T08:29:56;4.85;;;1.02;;
74383;SDS011;62824;52.994;-3.936;2024-01-16T08:32:29;2.42;;;1.40;;
74383;SDS011;62824;52.994;-3.936;2024-01-16T08:34:59;3.03;;;1.30;;
74383;SDS011;62824;52.994;-3.936;2024-01-16T08:40:31;2.80;;;0.90;;
74383;SDS011;62824;52.994;-3.936;2024-01-16T08:43:13;1.65;;;0.77;;
74383;SDS011;62824;52.994;-3.936;2024-01-16T08:45:42;2.15;;;0.98;;
74383;SDS011;62824;52.994;-3.936;2024-01-16T08:48:20;2.55;;;1.40;;
74383;SDS011;62824;52.994;-3.936;2024-01-16T08:50:57;4.13;;;1.00;;
74383;SDS011;62824;52.994;-3.936;2024-01-16T08:53:27;0.82;;;0.60;;
74383;SDS011;62824;52.994;-3.936;2024-01-16T08:55:59;2.15;;;1.20;;
74383;SDS011;62824;52.994;-3.936;2024-01-16T08:58:56;4.25;;;1.30;;
74383;SDS011;62824;52.994;-3.936;2024-01-16T09:01:35;3.22;;;1.00;;
74383;SDS011;62824;52.994;-3.936;2024-01-16T09:04:02;5.20;;;1.80;;
74383;SDS011;62824;52.994;-3.936;2024-01-16T09:06:31;4.50;;;0.88;;
74383;SDS011;62824;52.994;-3.936;2024-01-16T09:09:01;3.53;;;0.95;;
74383;SDS011;62824;52.994;-3.936;2024-01-16T09:11:31;4.05;;;1.27;;
74383;SDS011;62824;52.994;-3.936;2024-01-16T09:20:05;1.20;;;0.70;;
74383;SDS011;62824;52.994;-3.936;2024-01-16T09:30:25;2.88;;;1.13;;
74383;SDS011;62824;52.994;-3.936;2024-01-16T09:36:48;2.78;;;0.90;;
74383;SDS011;62824;52.994;-3.936;2024-01-16T09:39:28;1.20;;;0.80;;
74383;SDS011;62824;52.994;-3.936;2024-01-16T09:42:11;2.17;;;1.05;;
74383;SDS011;62824;52.994;-3.936;2024-01-16T09:44:38;4.38;;;1.38;;
74383;SDS011;62824;52.994;-3.936;2024-01-16T09:47:07;3.20;;;0.90;;
74383;SDS011;62824;52.994;-3.936;2024-01-16T09:49:36;4.82;;;2.05;;
74383;SDS011;62824;52.994;-3.936;2024-01-16T09:52:04;2.42;;;1.05;;
74383;SDS011;62824;52.994;-3.936;2024-01-16T09:54:30;2.20;;;1.15;;
74383;SDS011;62824;52.994;-3.936;2024-01-16T09:57:03;3.53;;;1.20;;
74383;SDS011;62824;52.994;-3.936;2024-01-16T09:59:39;3.70;;;1.23;;
74383;SDS011;62824;52.994;-3.936;2024-01-16T10:02:16;3.22;;;0.73;;
74383;SDS011;62824;52.994;-3.936;2024-01-16T10:04:44;3.13;;;0.80;;
74383;SDS011;62824;52.994;-3.936;2024-01-16T10:07:13;5.13;;;0.90;;
74383;SDS011;62824;52.994;-3.936;2024-01-16T10:09:41;1.85;;;1.13;;
74383;SDS011;62824;52.994;-3.936;2024-01-16T10:12:08;3.03;;;1.02;;
74383;SDS011;62824;52.994;-3.936;2024-01-16T10:14:36;1.65;;;0.93;;
74383;SDS011;62824;52.994;-3.936;2024-01-16T10:17:04;3.83;;;1.10;;
74383;SDS011;62824;52.994;-3.936;2024-01-16T10:19:33;2.10;;;0.80;;
74383;SDS011;62824;52.994;-3.936;2024-01-16T10:22:03;1.98;;;1.10;;
74383;SDS011;62824;52.994;-3.936;2024-01-16T10:24:32;2.35;;;1.30;;
74383;SDS011;62824;52.994;-3.936;2024-01-16T10:27:03;2.28;;;1.17;;
74383;SDS011;62824;52.994;-3.936;2024-01-16T10:29:29;4.18;;;2.05;;
74383;SDS011;62824;52.994;-3.936;2024-01-16T10:32:06;4.18;;;1.70;;
74383;SDS011;62824;52.994;-3.936;2024-01-16T10:34:39;3.20;;;0.98;;
74383;SDS011;62824;52.994;-3.936;2024-01-16T10:41:12;5.75;;;1.98;;
74383;SDS011;62824;52.994;-3.936;2024-01-16T10:43:39;2.40;;;1.58;;
74383;SDS011;62824;52.994;-3.936;2024-01-16T10:46:15;1.92;;;0.60;;
74383;SDS011;62824;52.994;-3.936;2024-01-16T10:48:58;1.27;;;0.80;;
74383;SDS011;62824;52.994;-3.936;2024-01-16T10:51:42;3.35;;;0.93;;
74383;SDS011;62824;52.994;-3.936;2024-01-16T11:26:53;2.25;;;1.17;;
74383;SDS011;62824;52.994;-3.936;2024-01-16T11:31:54;1.88;;;0.85;;
74383;SDS011;62824;52.994;-3.936;2024-01-16T11:37:10;4.00;;;0.90;;
74383;SDS011;62824;52.994;-3.936;2024-01-16T11:39:37;3.13;;;1.10;;
74383;SDS011;62824;52.994;-3.936;2024-01-16T11:42:09;1.27;;;1.10;;
74383;SDS011;62824;52.994;-3.936;2024-01-16T11:44:53;2.83;;;1.00;;
74383;SDS011;62824;52.994;-3.936;2024-01-16T11:47:21;2.40;;;0.90;;
74383;SDS011;62824;52.994;-3.936;2024-01-16T11:49:49;5.43;;;1.73;;
74383;SDS011;62824;52.994;-3.936;2024-01-16T11:52:38;3.90;;;1.55;;
74383;SDS011;62824;52.994;-3.936;2024-01-16T11:55:24;2.88;;;1.48;;
74383;SDS011;62824;52.994;-3.936;2024-01-16T12:00:49;0.77;;;0.70;;
74383;SDS011;62824;52.994;-3.936;2024-01-16T12:03:19;2.28;;;0.63;;
74383;SDS011;62824;52.994;-3.936;2024-01-16T12:05:56;1.45;;;0.85;;
74383;SDS011;62824;52.994;-3.936;2024-01-16T12:08:23;1.98;;;1.02;;
74383;SDS011;62824;52.994;-3.936;2024-01-16T12:10:49;3.30;;;1.00;;
74383;SDS011;62824;52.994;-3.936;2024-01-16T12:13:17;0.98;;;0.40;;
74383;SDS011;62824;52.994;-3.936;2024-01-16T12:15:44;2.75;;;0.90;;
74383;SDS011;62824;52.994;-3.936;2024-01-16T12:18:17;2.47;;;1.30;;
74383;SDS011;62824;52.994;-3.936;2024-01-16T12:20:44;2.53;;;1.08;;
74383;SDS011;62824;52.994;-3.936;2024-01-16T12:23:10;2.50;;;0.98;;
74383;SDS011;62824;52.994;-3.936;2024-01-16T12:25:36;3.35;;;1.02;;
74383;SDS011;62824;52.994;-3.936;2024-01-16T12:28:06;2.72;;;1.00;;
74383;SDS011;62824;52.994;-3.936;2024-01-16T12:30:48;3.38;;;1.20;;
74383;SDS011;62824;52.994;-3.936;2024-01-16T12:33:32;2.15;;;1.45;;
74383;SDS011;62824;52.994;-3.936;2024-01-16T12:39:37;1.10;;;0.55;;
74383;SDS011;62824;52.994;-3.936;2024-01-16T12:42:18;3.13;;;0.90;;
74383;SDS011;62824;52.994;-3.936;2024-01-16T12:44:56;0.68;;;0.50;;
74383;SDS011;62824;52.994;-3.936;2024-01-16T12:54:15;0.90;;;0.40;;
74383;SDS011;62824;52.994;-3.936;2024-01-16T13:00:26;1.75;;;0.70;;
74383;SDS011;62824;52.994;-3.936;2024-01-16T13:03:05;3.08;;;1.40;;
74383;SDS011;62824;52.994;-3.936;2024-01-16T13:05:43;3.83;;;1.17;;
74383;SDS011;62824;52.994;-3.936;2024-01-16T13:08:36;5.07;;;1.23;;
74383;SDS011;62824;52.994;-3.936;2024-01-16T13:11:17;3.10;;;1.40;;
74383;SDS011;62824;52.994;-3.936;2024-01-16T14:41:08;3.35;;;1.08;;
74383;SDS011;62824;52.994;-3.936;2024-01-16T14:43:39;2.90;;;1.08;;
74383;SDS011;62824;52.994;-3.936;2024-01-16T14:46:48;1.25;;;0.63;;
74383;SDS011;62824;52.994;-3.936;2024-01-16T14:53:40;2.58;;;1.08;;
74383;SDS011;62824;52.994;-3.936;2024-01-16T14:56:12;1.60;;;0.80;;
74383;SDS011;62824;52.994;-3.936;2024-01-16T14:59:02;2.90;;;0.80;;
74383;SDS011;62824;52.994;-3.936;2024-01-16T15:08:29;3.75;;;1.20;;
74383;SDS011;62824;52.994;-3.936;2024-01-16T15:15:25;3.67;;;1.20;;
74383;SDS011;62824;52.994;-3.936;2024-01-16T15:57:51;4.25;;;1.45;;
74383;SDS011;62824;52.994;-3.936;2024-01-16T16:00:17;4.88;;;1.30;;
74383;SDS011;62824;52.994;-3.936;2024-01-16T16:09:38;1.30;;;1.10;;
74383;SDS011;62824;52.994;-3.936;2024-01-16T16:12:33;3.80;;;1.27;;
74383;SDS011;62824;52.994;-3.936;2024-01-16T16:21:44;2.38;;;1.00;;
74383;SDS011;62824;52.994;-3.936;2024-01-16T16:30:32;5.43;;;1.33;;
74383;SDS011;62824;52.994;-3.936;2024-01-16T16:32:59;4.35;;;1.27;;
74383;SDS011;62824;52.994;-3.936;2024-01-16T16:35:25;2.70;;;1.40;;
74383;SDS011;62824;52.994;-3.936;2024-01-16T16:37:52;5.13;;;1.80;;
74383;SDS011;62824;52.994;-3.936;2024-01-16T16:40:20;3.20;;;1.50;;
74383;SDS011;62824;52.994;-3.936;2024-01-16T17:09:09;5.00;;;1.00;;
74383;SDS011;62824;52.994;-3.936;2024-01-16T17:11:56;4.03;;;1.30;;
74383;SDS011;62824;52.994;-3.936;2024-01-16T17:14:25;5.38;;;1.58;;
74383;SDS011;62824;52.994;-3.936;2024-01-16T17:25:18;3.05;;;1.52;;
74383;SDS011;62824;52.994;-3.936;2024-01-16T17:27:59;2.88;;;1.75;;
74383;SDS011;62824;52.994;-3.936;2024-01-16T17:30:34;3.33;;;1.40;;
74383;SDS011;62824;52.994;-3.936;2024-01-16T17:33:13;4.63;;;1.50;;
74383;SDS011;62824;52.994;-3.936;2024-01-16T17:35:41;7.95;;;1.92;;
74383;SDS011;62824;52.994;-3.936;2024-01-16T17:38:08;4.18;;;1.70;;
74383;SDS011;62824;52.994;-3.936;2024-01-16T18:02:19;5.25;;;1.88;;
74383;SDS011;62824;52.994;-3.936;2024-01-16T18:22:42;4.22;;;2.08;;
74383;SDS011;62824;52.994;-3.936;2024-01-16T18:34:57;2.67;;;1.52;;
74383;SDS011;62824;52.994;-3.936;2024-01-16T18:37:23;2.00;;;1.25;;
74383;SDS011;62824;52.994;-3.936;2024-01-16T18:39:50;4.05;;;1.45;;
74383;SDS011;62824;52.994;-3.936;2024-01-16T18:42:16;14.23;;;5.72;;
74383;SDS011;62824;52.994;-3.936;2024-01-16T18:44:45;4.03;;;1.90;;
74383;SDS011;62824;52.994;-3.936;2024-01-16T18:47:11;7.43;;;2.08;;
74383;SDS011;62824;52.994;-3.936;2024-01-16T18:49:38;5.55;;;1.40;;
74383;SDS011;62824;52.994;-3.936;2024-01-16T18:52:06;5.28;;;1.90;;
74383;SDS011;62824;52.994;-3.936;2024-01-16T18:54:32;7.63;;;3.03;;
74383;SDS011;62824;52.994;-3.936;2024-01-16T18:56:59;6.03;;;2.28;;
74383;SDS011;62824;52.994;-3.936;2024-01-16T18:59:25;4.72;;;1.98;;
74383;SDS011;62824;52.994;-3.936;2024-01-16T19:01:53;4.75;;;1.83;;
74383;SDS011;62824;52.994;-3.936;2024-01-16T19:04:20;5.70;;;2.53;;
74383;SDS011;62824;52.994;-3.936;2024-01-16T19:06:51;3.40;;;2.00;;
74383;SDS011;62824;52.994;-3.936;2024-01-16T19:09:17;5.03;;;1.80;;
74383;SDS011;62824;52.994;-3.936;2024-01-16T19:11:47;4.85;;;2.03;;
74383;SDS011;62824;52.994;-3.936;2024-01-16T19:14:14;4.90;;;1.50;;
74383;SDS011;62824;52.994;-3.936;2024-01-16T19:16:40;3.00;;;1.63;;
74383;SDS011;62824;52.994;-3.936;2024-01-16T19:19:09;4.78;;;1.90;;
74383;SDS011;62824;52.994;-3.936;2024-01-16T19:21:35;2.45;;;0.80;;
74383;SDS011;62824;52.994;-3.936;2024-01-16T19:24:03;2.40;;;1.30;;
74383;SDS011;62824;52.994;-3.936;2024-01-16T19:26:29;2.67;;;0.90;;
74383;SDS011;62824;52.994;-3.936;2024-01-16T19:28:55;1.38;;;0.95;;
74383;SDS011;62824;52.994;-3.936;2024-01-16T19:31:21;1.98;;;0.80;;
74383;SDS011;62824;52.994;-3.936;2024-01-16T19:33:47;4.68;;;1.23;;
74383;SDS011;62824;52.994;-3.936;2024-01-16T19:36:14;3.13;;;1.20;;
74383;SDS011;62824;52.994;-3.936;2024-01-16T19:38:40;5.10;;;1.23;;
74383;SDS011;62824;52.994;-3.936;2024-01-16T19:41:08;1.88;;;0.90;;
74383;SDS011;62824;52.994;-3.936;2024-01-16T19:43:35;3.92;;;1.13;;
74383;SDS011;62824;52.994;-3.936;2024-01-16T19:46:01;1.90;;;1.20;;
74383;SDS011;62824;52.994;-3.936;2024-01-16T19:48:28;3.67;;;1.15;;
74383;SDS011;62824;52.994;-3.936;2024-01-16T19:50:54;3.70;;;2.28;;
74383;SDS011;62824;52.994;-3.936;2024-01-16T19:53:22;4.32;;;1.35;;
74383;SDS011;62824;52.994;-3.936;2024-01-16T19:55:49;3.17;;;1.40;;
74383;SDS011;62824;52.994;-3.936;2024-01-16T19:58:16;6.13;;;1.70;;
74383;SDS011;62824;52.994;-3.936;2024-01-16T20:00:42;7.32;;;1.92;;
74383;SDS011;62824;52.994;-3.936;2024-01-16T20:03:09;3.88;;;2.00;;
74383;SDS011;62824;52.994;-3.936;2024-01-16T20:05:36;3.40;;;1.30;;
74383;SDS011;62824;52.994;-3.936;2024-01-16T20:08:09;2.08;;;1.20;;
74383;SDS011;62824;52.994;-3.936;2024-01-16T20:10:40;6.32;;;1.90;;
74383;SDS011;62824;52.994;-3.936;2024-01-16T20:13:06;2.47;;;1.40;;
74383;SDS011;62824;52.994;-3.936;2024-01-16T20:15:33;4.97;;;1.77;;
74383;SDS011;62824;52.994;-3.936;2024-01-16T20:17:59;2.70;;;1.42;;
74383;SDS011;62824;52.994;-3.936;2024-01-16T20:20:30;1.17;;;1.08;;
74383;SDS011;62824;52.994;-3.936;2024-01-16T20:22:56;4.95;;;1.15;;
74383;SDS011;62824;52.994;-3.936;2024-01-16T20:25:23;1.77;;;0.80;;
74383;SDS011;62824;52.994;-3.936;2024-01-16T20:27:49;4.53;;;1.15;;
74383;SDS011;62824;52.994;-3.936;2024-01-16T20:30:19;2.65;;;1.08;;
74383;SDS011;62824;52.994;-3.936;2024-01-16T20:32:46;2.13;;;1.08;;
74383;SDS011;62824;52.994;-3.936;2024-01-16T20:35:13;1.23;;;0.80;;
74383;SDS011;62824;52.994;-3.936;2024-01-16T20:44:48;2.03;;;0.70;;
